Pennington, Texas
Current Conditions -  °F | °C
As of 1:15 AM on Saturday 29 Nov 2014 (Local Time) from KDKR Reporting Station
Clear Clear  
Wind Chill: 57°   Ceiling: Unl
Heat Index: 57°   Visibility: 8mi
Dew Point: 57°   Wind: 7mph
Humidity: 100%   Direction: 180°S
Pressure: 30.1"   Gusts: NA
Location:  31.19°N, 95.24°W
Report Text: KDKR 290715Z AUTO 18006KT 8SM CLR 14/14 A3010 RMK AO2
Loading
Personal Weather Stations






























Interactive Weather Map New forecast layout! Learn more

10-Day Weather Forecast

Advertisements
Track Severe Weather on mobile